KOLS/OLS METAR and TAF weather

Enter ICAO airport designator
Station Type Date Time Source
KOLS METAR 2020/04/01 23:54 UTC NOAA

KOLS 012354Z AUTO 23015G23KT 10SM BKN120 24/M05 A2987 RMK AO2 PK WND 25027/2309 SLP063 T02441050 10278 20244 55002


Station Type Date Time Source
KOLS Decoded METAR 2020/04/01 23:54 UTC NOAA

NOGALES INTERNATIONAL AIRPORT , AZ, United States (KOLS) 31-25N 110-51W 1184M
Apr 01, 2020 - 07:54 PM EDT / 2020.04.01 2354 UTC
Wind: from the SW (230 degrees) at 17 MPH (15 KT) gusting to 26 MPH (23 KT):0
Visibility: 10 mile(s):0
Sky conditions: mostly cloudy
Temperature: 75.9 F (24.4 C)
Dew Point: 23.0 F (-5.0 C)
Relative Humidity: 13%
Pressure (altimeter): 29.87 in. Hg (1011 hPa)
Pressure tendency: 0.01 inches (0.2 hPa) lower than three hours ago
ob: KOLS 012354Z AUTO 23015G23KT 10SM BKN120 24/M05 A2987 RMK AO2 PK WND 25027/2309 SLP063 T02441050 10278 20244 55002
cycle: 0

Station Type Date Time Source
KOLS TAF 2020/04/01 18:24 UTC NOAA

TAF KOLS 011722Z 0118/0218 19012G20KT P6SM BKN140
FM011900 22016G25KT P6SM SCT140
FM020400 17007KT P6SM SKC

Example: see airport list